createdAt,value
2022-12-10T00:01:53.775Z,20.80
2022-12-10T00:06:57.764Z,20.80
2022-12-10T00:12:00.434Z,20.80
2022-12-10T00:17:03.161Z,20.80
2022-12-10T00:22:07.146Z,20.80
2022-12-10T00:27:09.758Z,20.80
2022-12-10T00:32:12.398Z,20.70
2022-12-10T00:37:16.346Z,20.70
2022-12-10T00:42:19.041Z,20.80
2022-12-10T00:47:21.704Z,20.70
2022-12-10T00:52:25.684Z,20.80
2022-12-10T00:57:28.315Z,20.70
2022-12-10T01:02:31.043Z,20.70
2022-12-10T01:07:35.082Z,20.70
2022-12-10T01:12:37.749Z,20.70
2022-12-10T01:17:40.408Z,20.70
2022-12-10T01:22:45.188Z,20.70
2022-12-10T01:27:47.955Z,20.70
2022-12-10T01:32:50.605Z,20.60
2022-12-10T01:37:54.711Z,20.60
2022-12-10T01:43:00.337Z,20.60
2022-12-10T01:48:07.833Z,20.60
2022-12-10T01:53:13.118Z,20.60
2022-12-10T01:58:16.783Z,20.60
2022-12-10T02:03:21.822Z,20.60
2022-12-10T02:08:28.017Z,20.50
2022-12-10T02:13:33.022Z,20.50
2022-12-10T02:18:37.917Z,20.60
2022-12-10T02:23:43.602Z,20.60
2022-12-10T02:28:49.913Z,20.50
2022-12-10T02:33:56.973Z,20.50
2022-12-10T02:39:00.922Z,20.50
2022-12-10T02:44:05.296Z,20.50
2022-12-10T02:49:09.639Z,20.60
2022-12-10T02:54:27.163Z,20.50
2022-12-10T02:59:31.583Z,20.50
2022-12-10T03:04:41.269Z,20.50
2022-12-10T03:09:47.902Z,20.40
2022-12-10T03:14:50.649Z,20.40
2022-12-10T03:19:54.946Z,20.50
2022-12-10T03:24:57.922Z,20.40
2022-12-10T03:30:01.238Z,20.40
2022-12-10T03:35:06.625Z,20.30
2022-12-10T03:40:11.649Z,20.40
2022-12-10T03:45:14.795Z,20.40
2022-12-10T03:50:18.950Z,20.40
2022-12-10T03:55:24.582Z,20.40
2022-12-10T04:00:27.914Z,20.30
2022-12-10T04:05:32.131Z,20.40
2022-12-10T04:10:36.898Z,20.40
2022-12-10T04:15:58.046Z,20.40
2022-12-10T04:21:24.786Z,20.30
2022-12-10T04:26:45.143Z,20.30
2022-12-10T04:31:47.863Z,20.30
2022-12-10T04:36:52.385Z,20.30
2022-12-10T04:41:55.839Z,20.20
2022-12-10T04:46:58.726Z,20.30
2022-12-10T04:52:02.890Z,20.30
2022-12-10T04:57:05.549Z,20.30
2022-12-10T05:02:08.229Z,20.20
2022-12-10T05:07:12.289Z,20.20
2022-12-10T05:12:14.918Z,20.30
2022-12-10T05:17:17.757Z,20.20
2022-12-10T05:22:39.294Z,20.20
2022-12-10T05:27:42.197Z,20.30
2022-12-10T05:32:44.826Z,20.30
2022-12-10T05:37:48.794Z,20.20
2022-12-10T05:42:51.440Z,20.20
2022-12-10T05:47:54.101Z,20.20
2022-12-10T05:52:59.170Z,20.20
2022-12-10T05:58:01.925Z,20.30
2022-12-10T06:03:04.681Z,20.20
2022-12-10T06:08:09.079Z,20.20
2022-12-10T06:13:12.080Z,20.30
2022-12-10T06:18:14.718Z,20.40
2022-12-10T06:23:18.811Z,20.40
2022-12-10T06:28:21.611Z,20.40
2022-12-10T06:33:24.227Z,20.50
2022-12-10T06:38:28.174Z,20.50
2022-12-10T06:43:31.516Z,20.60
2022-12-10T06:48:34.157Z,20.70
2022-12-10T06:53:38.678Z,20.70
2022-12-10T06:58:41.577Z,20.80
2022-12-10T07:03:44.587Z,21.00
2022-12-10T07:08:49.202Z,21.00
2022-12-10T07:13:52.162Z,21.00
2022-12-10T07:18:55.316Z,21.10
2022-12-10T07:23:59.970Z,21.00
2022-12-10T07:29:03.780Z,20.90
2022-12-10T07:34:06.438Z,21.00
2022-12-10T07:39:11.218Z,21.10
2022-12-10T07:44:14.769Z,21.10
2022-12-10T07:49:17.573Z,21.20
2022-12-10T07:54:21.579Z,21.20
2022-12-10T07:59:24.229Z,21.20
2022-12-10T08:04:29.293Z,21.20
2022-12-10T08:09:33.355Z,21.20
2022-12-10T08:14:35.990Z,21.30
2022-12-10T08:19:38.648Z,21.30
2022-12-10T08:24:42.717Z,21.30
2022-12-10T08:29:45.362Z,21.40
2022-12-10T08:34:48.577Z,21.40
2022-12-10T08:39:52.597Z,21.40
2022-12-10T08:44:55.294Z,21.40
2022-12-10T08:49:58.021Z,21.40
2022-12-10T08:55:02.041Z,21.50
2022-12-10T09:00:05.439Z,21.50
2022-12-10T09:05:08.699Z,21.50
2022-12-10T09:10:13.287Z,21.40
2022-12-10T09:15:15.946Z,21.50
2022-12-10T09:20:18.657Z,21.50
2022-12-10T09:25:23.095Z,21.50
2022-12-10T09:30:25.758Z,21.60
2022-12-10T09:35:28.638Z,21.60
2022-12-10T09:40:37.323Z,21.60
2022-12-10T09:45:46.602Z,21.60
2022-12-10T09:50:53.441Z,21.70
2022-12-10T09:55:57.779Z,21.70
2022-12-10T10:01:01.345Z,21.70
2022-12-10T10:06:10.727Z,21.80
2022-12-10T10:11:18.133Z,21.70
2022-12-10T10:16:24.247Z,21.60
2022-12-10T10:21:28.340Z,21.70
2022-12-10T10:26:32.383Z,21.70
2022-12-10T10:31:36.132Z,21.70
2022-12-10T10:36:39.718Z,21.80
2022-12-10T10:41:44.048Z,21.80
2022-12-10T10:46:47.686Z,21.70
2022-12-10T10:51:50.745Z,21.80
2022-12-10T10:56:56.641Z,21.80
2022-12-10T11:02:03.320Z,21.80
2022-12-10T11:07:07.211Z,21.80
2022-12-10T11:12:23.762Z,21.80
2022-12-10T11:17:28.403Z,21.90
2022-12-10T11:22:31.738Z,22.00
2022-12-10T11:27:51.389Z,21.90
2022-12-10T11:33:01.085Z,21.90
2022-12-10T11:38:07.569Z,21.90
2022-12-10T11:43:22.926Z,21.90
2022-12-10T11:48:38.998Z,21.90
2022-12-10T11:53:53.335Z,21.90
2022-12-10T11:59:06.776Z,22.00
2022-12-10T12:04:27.265Z,22.00
2022-12-10T12:09:35.766Z,22.00
2022-12-10T12:14:42.915Z,22.00
2022-12-10T12:19:46.991Z,22.00
2022-12-10T12:24:50.901Z,22.00
2022-12-10T12:30:00.522Z,21.90
2022-12-10T12:35:04.478Z,21.90
2022-12-10T12:40:12.995Z,22.00
2022-12-10T12:45:18.700Z,21.90
2022-12-10T12:50:26.685Z,21.90
2022-12-10T12:55:33.278Z,22.00
2022-12-10T13:00:37.817Z,22.00
2022-12-10T13:05:40.915Z,21.90
2022-12-10T13:10:47.278Z,22.00
2022-12-10T13:15:51.341Z,22.00
2022-12-10T13:21:14.390Z,22.00
2022-12-10T13:26:24.443Z,22.00
2022-12-10T13:31:38.877Z,22.00
2022-12-10T13:37:04.613Z,22.00
2022-12-10T13:42:45.229Z,22.00
2022-12-10T13:47:54.153Z,22.00
2022-12-10T13:53:00.529Z,22.00
2022-12-10T13:58:15.562Z,21.90
2022-12-10T14:03:39.059Z,21.90
2022-12-10T14:08:55.969Z,22.00
2022-12-10T14:14:00.324Z,21.90
2022-12-10T14:19:04.235Z,21.90
2022-12-10T14:24:27.101Z,21.90
2022-12-10T14:29:30.032Z,22.00
2022-12-10T14:34:32.758Z,22.00
2022-12-10T14:39:39.771Z,22.00
2022-12-10T14:44:42.525Z,22.00
2022-12-10T14:49:46.442Z,22.00
2022-12-10T14:54:50.546Z,21.90
2022-12-10T14:59:58.689Z,22.00
2022-12-10T15:05:01.688Z,21.90
2022-12-10T15:10:11.784Z,22.00
2022-12-10T15:15:18.379Z,21.90
2022-12-10T15:20:21.883Z,22.00
2022-12-10T15:25:28.329Z,22.00
2022-12-10T15:30:35.683Z,21.90
2022-12-10T15:35:38.338Z,22.00
2022-12-10T15:40:42.425Z,22.00
2022-12-10T15:45:45.202Z,22.00
2022-12-10T15:50:49.565Z,22.00
2022-12-10T15:55:53.573Z,22.00
2022-12-10T16:00:56.550Z,22.00
2022-12-10T16:05:59.316Z,21.90
2022-12-10T16:11:07.852Z,22.00
2022-12-10T16:16:11.720Z,22.00
2022-12-10T16:21:14.568Z,22.10
2022-12-10T16:26:19.695Z,22.00
2022-12-10T16:31:22.980Z,22.00
2022-12-10T16:36:25.630Z,22.00
2022-12-10T16:41:30.028Z,22.10
2022-12-10T16:46:32.702Z,22.00
2022-12-10T16:51:35.535Z,22.00
2022-12-10T16:56:39.561Z,22.00
2022-12-10T17:01:42.224Z,22.00
2022-12-10T17:06:44.897Z,22.00
2022-12-10T17:11:49.907Z,22.00
2022-12-10T17:16:53.551Z,22.00
2022-12-10T17:21:56.373Z,22.00
2022-12-10T17:27:02.110Z,22.00
2022-12-10T17:32:05.696Z,22.00
2022-12-10T17:37:10.271Z,22.00
2022-12-10T17:42:14.298Z,22.00
2022-12-10T17:47:19.071Z,22.10
2022-12-10T17:52:21.723Z,22.10
2022-12-10T17:57:26.722Z,22.20
2022-12-10T18:02:29.457Z,22.20
2022-12-10T18:07:32.164Z,22.00
2022-12-10T18:12:36.192Z,22.10
2022-12-10T18:17:38.901Z,22.10
2022-12-10T18:22:41.582Z,22.00
2022-12-10T18:27:45.689Z,22.10
2022-12-10T18:32:48.753Z,22.10
2022-12-10T18:37:51.663Z,22.10
2022-12-10T18:42:55.674Z,22.00
2022-12-10T18:47:58.863Z,22.10
2022-12-10T18:53:01.569Z,22.10
2022-12-10T18:58:07.193Z,22.10
2022-12-10T19:03:10.069Z,22.10
2022-12-10T19:08:13.760Z,22.10
2022-12-10T19:13:19.041Z,22.10
2022-12-10T19:18:21.720Z,22.10
2022-12-10T19:23:24.372Z,22.10
2022-12-10T19:28:29.272Z,22.20
2022-12-10T19:33:31.921Z,22.10
2022-12-10T19:38:34.689Z,22.20
2022-12-10T19:43:39.038Z,22.10
2022-12-10T19:48:42.113Z,22.10
2022-12-10T19:53:48.827Z,22.10
2022-12-10T19:58:56.445Z,22.00
2022-12-10T20:03:59.177Z,22.10
2022-12-10T20:09:02.746Z,22.10
2022-12-10T20:14:06.757Z,22.10
2022-12-10T20:19:10.914Z,22.10
2022-12-10T20:24:14.037Z,22.10
2022-12-10T20:29:19.110Z,22.20
2022-12-10T20:34:22.522Z,22.10
2022-12-10T20:39:25.977Z,22.20
2022-12-10T20:44:29.943Z,22.20
2022-12-10T20:49:32.609Z,22.10
2022-12-10T20:54:35.246Z,22.20
2022-12-10T20:59:39.249Z,22.20
2022-12-10T21:04:41.942Z,22.10
2022-12-10T21:09:45.088Z,22.20
2022-12-10T21:14:54.325Z,22.20
2022-12-10T21:19:59.264Z,22.10
2022-12-10T21:25:01.881Z,22.20
2022-12-10T21:30:06.590Z,22.20
2022-12-10T21:35:09.592Z,22.20
2022-12-10T21:40:12.839Z,22.10
2022-12-10T21:45:16.831Z,22.20
2022-12-10T21:50:19.674Z,22.20
2022-12-10T21:55:28.205Z,22.10
2022-12-10T22:00:34.196Z,22.20
2022-12-10T22:05:41.577Z,22.20
2022-12-10T22:10:49.926Z,22.20
2022-12-10T22:15:54.527Z,22.20
2022-12-10T22:20:58.840Z,22.30
2022-12-10T22:26:01.525Z,22.30
2022-12-10T22:31:09.029Z,22.30
2022-12-10T22:36:12.165Z,22.30
2022-12-10T22:41:15.908Z,22.30
2022-12-10T22:46:20.042Z,22.30
2022-12-10T22:51:22.789Z,22.20
2022-12-10T22:56:26.121Z,22.20
2022-12-10T23:01:30.380Z,22.20
2022-12-10T23:06:33.034Z,22.20
2022-12-10T23:11:35.706Z,22.30
2022-12-10T23:16:40.833Z,22.20
2022-12-10T23:21:43.654Z,22.20
2022-12-10T23:26:46.289Z,22.10
2022-12-10T23:31:50.391Z,22.10
2022-12-10T23:36:53.094Z,22.00
2022-12-10T23:41:55.719Z,22.00
2022-12-10T23:46:59.723Z,22.00
2022-12-10T23:52:09.163Z,21.90
2022-12-10T23:57:12.874Z,21.80
